Time;durP1;ratioP1;P1;durP2;ratioP2;P2;SDS_P1;SDS_P2;PMS_P1;PMS_P2;Temp;Humidity;BMP_temperature;BMP_pressure;BME280_temperature;BME280_humidity;BME280_pressure;Samples;Min_cycle;Max_cycle;Signal;HPM_P1;HPM_P2
2023/03/13 00:00:50;;;;;;;68.57;10.30;;;;;;;;;;5052007;28;20451;-69
2023/03/13 00:03:19;;;;;;;67.13;8.00;;;;;;;;;;5052154;28;20479;-69
2023/03/13 00:05:46;;;;;;;65.67;5.53;;;;;;;;;;5052046;28;20474;-70
2023/03/13 00:08:13;;;;;;;67.07;6.10;;;;;;;;;;5051866;28;20983;-69
2023/03/13 00:10:40;;;;;;;64.90;6.00;;;;;;;;;;5051753;28;20948;-70
2023/03/13 00:13:10;;;;;;;64.20;5.37;;;;;;;;;;5052085;28;20469;-69
2023/03/13 00:15:37;;;;;;;67.73;5.47;;;;;;;;;;5051994;28;20828;-70
2023/03/13 00:18:05;;;;;;;62.37;5.47;;;;;;;;;;5051822;28;20448;-69
2023/03/13 00:20:33;;;;;;;64.80;5.87;;;;;;;;;;5052039;28;20444;-69
2023/03/13 00:23:00;;;;;;;64.67;5.93;;;;;;;;;;5051616;28;20444;-69
2023/03/13 00:25:27;;;;;;;63.13;5.87;;;;;;;;;;5051876;28;20448;-69
2023/03/13 00:27:54;;;;;;;64.70;5.70;;;;;;;;;;5051900;28;20448;-69
2023/03/13 00:30:21;;;;;;;64.07;5.90;;;;;;;;;;5051455;28;20484;-70
2023/03/13 00:32:48;;;;;;;65.87;5.43;;;;;;;;;;5051583;28;21003;-69
2023/03/13 00:35:16;;;;;;;66.93;6.30;;;;;;;;;;5051647;28;20535;-69
2023/03/13 00:37:45;;;;;;;67.23;7.40;;;;;;;;;;5051662;28;20846;-69
2023/03/13 00:40:12;;;;;;;66.83;5.87;;;;;;;;;;5054340;28;20446;-70
2023/03/13 00:42:39;;;;;;;67.77;5.80;;;;;;;;;;5058204;28;20452;-69
2023/03/13 00:45:07;;;;;;;67.70;7.85;;;;;;;;;;5058241;28;20454;-69
2023/03/13 00:47:34;;;;;;;70.03;6.80;;;;;;;;;;5058221;28;20225;-69
2023/03/13 00:50:01;;;;;;;64.30;6.50;;;;;;;;;;5057582;28;20482;-69
2023/03/13 00:52:28;;;;;;;66.27;6.97;;;;;;;;;;5058449;28;20531;-69
2023/03/13 00:54:57;;;;;;;69.73;6.43;;;;;;;;;;5058295;28;20444;-69
2023/03/13 00:57:24;;;;;;;68.70;7.00;;;;;;;;;;5058162;28;20851;-69
2023/03/13 00:59:51;;;;;;;69.85;6.75;;;;;;;;;;5058061;28;20815;-69
2023/03/13 01:02:18;;;;;;;67.22;6.10;;;;;;;;;;5058106;28;20205;-69
2023/03/13 01:04:46;;;;;;;65.82;6.45;;;;;;;;;;5058073;28;20216;-69
2023/03/13 01:07:13;;;;;;;67.17;7.03;;;;;;;;;;5058317;28;20229;-73
2023/03/13 01:09:40;;;;;;;70.80;6.83;;;;;;;;;;5057695;28;20487;-69
2023/03/13 01:12:09;;;;;;;67.03;6.70;;;;;;;;;;5058397;28;20920;-69
2023/03/13 01:14:36;;;;;;;69.80;6.70;;;;;;;;;;5057964;28;20451;-69
2023/03/13 01:17:03;;;;;;;68.32;7.70;;;;;;;;;;5057861;28;20225;-69
2023/03/13 01:19:30;;;;;;;67.47;5.83;;;;;;;;;;5057798;28;20208;-69
2023/03/13 01:21:57;;;;;;;69.03;6.33;;;;;;;;;;5058124;28;20448;-69
2023/03/13 01:24:24;;;;;;;64.83;5.37;;;;;;;;;;5057814;28;20972;-69
2023/03/13 01:26:51;;;;;;;65.50;5.83;;;;;;;;;;5057972;28;20472;-69
2023/03/13 01:29:20;;;;;;;67.77;6.40;;;;;;;;;;5057550;28;20483;-69
2023/03/13 01:31:47;;;;;;;64.30;6.30;;;;;;;;;;5057531;28;20495;-70
2023/03/13 01:34:14;;;;;;;66.83;5.93;;;;;;;;;;5058002;28;20559;-69
2023/03/13 01:36:42;;;;;;;64.00;6.20;;;;;;;;;;5057817;28;20852;-69
2023/03/13 01:39:09;;;;;;;68.67;6.97;;;;;;;;;;5057855;28;20448;-69
2023/03/13 01:41:37;;;;;;;69.00;5.27;;;;;;;;;;5057775;28;20444;-69
2023/03/13 01:44:05;;;;;;;68.53;5.90;;;;;;;;;;5057685;28;20448;-69
2023/03/13 01:46:33;;;;;;;65.13;5.75;;;;;;;;;;5057648;28;20484;-69
2023/03/13 01:49:03;;;;;;;63.50;6.05;;;;;;;;;;5057448;28;20216;-69
2023/03/13 01:51:32;;;;;;;66.20;6.60;;;;;;;;;;5055566;28;20213;-69
2023/03/13 01:54:03;;;;;;;67.27;6.40;;;;;;;;;;5054534;28;20834;-69
2023/03/13 01:56:33;;;;;;;72.80;6.10;;;;;;;;;;5054359;28;20464;-69
2023/03/13 01:59:00;;;;;;;68.83;6.60;;;;;;;;;;5054275;28;20459;-69
2023/03/13 02:01:27;;;;;;;67.60;6.13;;;;;;;;;;5054272;28;20444;-69
2023/03/13 02:03:57;;;;;;;66.10;5.87;;;;;;;;;;5054488;28;20448;-70
2023/03/13 02:06:24;;;;;;;65.07;5.20;;;;;;;;;;5054193;28;20980;-70
2023/03/13 02:08:53;;;;;;;65.40;6.13;;;;;;;;;;5054164;28;20444;-69
2023/03/13 02:11:24;;;;;;;65.50;6.95;;;;;;;;;;5054066;28;20451;-69
2023/03/13 02:13:52;;;;;;;64.40;5.50;;;;;;;;;;5054361;28;20377;-69
2023/03/13 02:16:19;;;;;;;67.13;5.77;;;;;;;;;;5054110;28;20484;-69
2023/03/13 02:18:47;;;;;;;63.10;5.73;;;;;;;;;;5053790;28;20823;-70
2023/03/13 02:21:21;;;;;;;66.77;5.53;;;;;;;;;;5053996;28;20440;-69
2023/03/13 02:23:51;;;;;;;63.83;5.17;;;;;;;;;;5053974;28;20823;-69
2023/03/13 02:26:20;;;;;;;66.60;5.70;;;;;;;;;;5054100;28;20551;-69
2023/03/13 02:28:49;;;;;;;65.00;5.93;;;;;;;;;;5053636;28;20493;-69
2023/03/13 02:31:16;;;;;;;65.27;5.07;;;;;;;;;;5053644;28;20488;-69
2023/03/13 02:33:43;;;;;;;63.27;4.33;;;;;;;;;;5053739;28;20452;-69
2023/03/13 02:36:12;;;;;;;62.93;5.30;;;;;;;;;;5053549;28;20518;-69
2023/03/13 02:38:42;;;;;;;61.73;4.97;;;;;;;;;;5053459;28;20467;-69
2023/03/13 02:41:09;;;;;;;63.17;4.97;;;;;;;;;;5053811;28;20453;-69
2023/03/13 02:43:38;;;;;;;65.03;5.10;;;;;;;;;;5053668;28;20836;-69
2023/03/13 02:46:06;;;;;;;61.77;5.50;;;;;;;;;;5053407;28;20480;-69
2023/03/13 02:48:35;;;;;;;63.93;5.33;;;;;;;;;;5051818;28;21261;-69
2023/03/13 02:51:04;;;;;;;66.03;5.03;;;;;;;;;;5053470;28;20487;-69
2023/03/13 02:53:31;;;;;;;63.63;5.60;;;;;;;;;;5053376;28;20975;-69
2023/03/13 02:55:58;;;;;;;64.00;4.83;;;;;;;;;;5053351;28;20468;-69
2023/03/13 02:58:25;;;;;;;66.43;5.43;;;;;;;;;;5053100;28;20826;-69
2023/03/13 03:00:54;;;;;;;62.30;5.07;;;;;;;;;;5053239;28;20451;-69
2023/03/13 03:03:21;;;;;;;64.00;4.97;;;;;;;;;;5053244;28;20526;-69
2023/03/13 03:05:48;;;;;;;63.07;5.07;;;;;;;;;;5053021;28;20478;-69
2023/03/13 03:08:15;;;;;;;64.27;5.10;;;;;;;;;;5053051;28;20464;-69
2023/03/13 03:10:42;;;;;;;65.57;4.60;;;;;;;;;;5052745;28;20480;-69
2023/03/13 03:13:09;;;;;;;65.20;4.80;;;;;;;;;;5052949;28;20444;-69
2023/03/13 03:15:37;;;;;;;62.47;4.90;;;;;;;;;;5053011;28;20824;-69
2023/03/13 03:18:05;;;;;;;65.37;4.90;;;;;;;;;;5052901;28;20450;-69
2023/03/13 03:20:32;;;;;;;63.40;5.83;;;;;;;;;;5052703;28;20440;-69
2023/03/13 03:22:59;;;;;;;68.23;5.67;;;;;;;;;;5052832;28;20945;-69
2023/03/13 03:25:26;;;;;;;60.77;4.87;;;;;;;;;;5052562;28;20451;-69
2023/03/13 03:27:53;;;;;;;61.10;4.73;;;;;;;;;;5052913;28;20454;-69
2023/03/13 03:30:21;;;;;;;60.87;4.80;;;;;;;;;;5052480;28;20866;-69
2023/03/13 03:32:48;;;;;;;65.50;5.83;;;;;;;;;;5052804;28;20455;-69
2023/03/13 03:35:16;;;;;;;62.13;4.97;;;;;;;;;;5052563;28;20449;-69
2023/03/13 03:37:43;;;;;;;63.10;5.40;;;;;;;;;;5051995;28;20468;-69
2023/03/13 03:40:11;;;;;;;67.50;4.60;;;;;;;;;;5052098;28;20450;-69
2023/03/13 03:42:38;;;;;;;62.10;4.60;;;;;;;;;;5052622;28;20833;-69
2023/03/13 03:45:06;;;;;;;65.53;4.47;;;;;;;;;;5052436;28;20452;-69
2023/03/13 03:47:33;;;;;;;62.40;4.07;;;;;;;;;;5052232;28;20996;-69
2023/03/13 03:50:02;;;;;;;61.17;4.27;;;;;;;;;;5051861;28;20487;-69
2023/03/13 03:52:30;;;;;;;64.00;4.50;;;;;;;;;;5052288;28;20621;-69
2023/03/13 03:54:57;;;;;;;61.30;4.47;;;;;;;;;;5052434;28;20444;-69
2023/03/13 03:57:25;;;;;;;59.70;3.27;;;;;;;;;;5052018;28;20472;-69
2023/03/13 03:59:52;;;;;;;60.67;3.87;;;;;;;;;;5052073;28;20816;-69
2023/03/13 04:02:19;;;;;;;63.50;4.00;;;;;;;;;;5052160;28;20452;-69
2023/03/13 04:04:46;;;;;;;62.63;3.97;;;;;;;;;;5051921;28;20967;-69
2023/03/13 04:07:13;;;;;;;59.50;3.43;;;;;;;;;;5052161;28;20476;-69
2023/03/13 04:09:41;;;;;;;60.43;3.50;;;;;;;;;;5051794;28;20456;-69
2023/03/13 04:12:09;;;;;;;58.00;2.90;;;;;;;;;;5052019;28;20832;-69
2023/03/13 04:14:36;;;;;;;58.30;2.80;;;;;;;;;;5051516;28;20444;-69
2023/03/13 04:17:03;;;;;;;60.87;3.60;;;;;;;;;;5051630;28;20470;-69
2023/03/13 04:19:30;;;;;;;59.10;3.00;;;;;;;;;;5051371;28;20821;-69
2023/03/13 04:21:57;;;;;;;58.30;2.93;;;;;;;;;;5051936;28;20528;-69
2023/03/13 04:24:24;;;;;;;59.90;3.23;;;;;;;;;;5051987;28;20453;-69
2023/03/13 04:26:53;;;;;;;58.10;3.10;;;;;;;;;;5051713;28;20468;-69
2023/03/13 04:29:20;;;;;;;59.63;3.07;;;;;;;;;;5051418;28;20451;-69
2023/03/13 04:31:47;;;;;;;59.87;2.97;;;;;;;;;;5051611;28;20484;-69
2023/03/13 04:34:14;;;;;;;58.10;2.80;;;;;;;;;;5051630;28;20857;-69
2023/03/13 04:36:41;;;;;;;59.33;3.23;;;;;;;;;;5051751;28;20472;-69
2023/03/13 04:39:08;;;;;;;58.63;2.77;;;;;;;;;;5051531;28;20455;-69
2023/03/13 04:41:35;;;;;;;57.90;2.60;;;;;;;;;;5051797;28;20797;-69
2023/03/13 04:44:04;;;;;;;59.13;3.10;;;;;;;;;;5051444;28;20449;-69
2023/03/13 04:46:31;;;;;;;58.00;2.57;;;;;;;;;;5051286;28;20882;-69
2023/03/13 04:48:58;;;;;;;57.57;2.30;;;;;;;;;;5051232;28;20448;-69
2023/03/13 04:51:25;;;;;;;57.60;2.50;;;;;;;;;;5051270;28;21008;-69
2023/03/13 04:53:52;;;;;;;57.87;2.77;;;;;;;;;;5051609;28;20445;-69
2023/03/13 04:56:22;;;;;;;58.47;2.67;;;;;;;;;;5051938;28;20834;-69
2023/03/13 04:58:49;;;;;;;58.70;2.60;;;;;;;;;;5051166;28;20852;-69
2023/03/13 05:01:18;;;;;;;58.30;2.80;;;;;;;;;;5051343;28;20452;-69
2023/03/13 05:03:45;;;;;;;58.77;2.90;;;;;;;;;;5051568;28;20455;-69
2023/03/13 05:06:12;;;;;;;58.57;2.60;;;;;;;;;;5051332;28;20472;-69
2023/03/13 05:08:39;;;;;;;57.60;2.43;;;;;;;;;;5051129;28;20452;-69
2023/03/13 05:11:06;;;;;;;57.80;2.70;;;;;;;;;;5051804;28;20476;-69
2023/03/13 05:13:33;;;;;;;58.07;2.63;;;;;;;;;;5051275;28;20452;-69
2023/03/13 05:16:01;;;;;;;57.60;2.67;;;;;;;;;;5051476;28;20822;-69
2023/03/13 05:18:29;;;;;;;57.57;2.40;;;;;;;;;;5051360;28;20451;-69
2023/03/13 05:20:57;;;;;;;59.27;2.70;;;;;;;;;;5051363;28;20823;-69
2023/03/13 05:23:24;;;;;;;57.70;2.93;;;;;;;;;;5051386;28;20798;-69
2023/03/13 05:25:51;;;;;;;57.47;2.50;;;;;;;;;;5051163;28;20595;-69
2023/03/13 05:28:18;;;;;;;57.90;2.87;;;;;;;;;;5054083;28;20454;-69
2023/03/13 05:30:45;;;;;;;58.67;3.00;;;;;;;;;;5054688;28;20479;-69
2023/03/13 05:33:12;;;;;;;58.40;2.83;;;;;;;;;;5055025;28;20452;-69
2023/03/13 05:35:41;;;;;;;58.43;3.00;;;;;;;;;;5055032;28;20452;-69
2023/03/13 05:38:08;;;;;;;59.80;3.20;;;;;;;;;;5054732;28;20460;-69
2023/03/13 05:40:35;;;;;;;58.00;2.63;;;;;;;;;;5054411;28;20452;-69
2023/03/13 05:43:02;;;;;;;59.17;2.70;;;;;;;;;;5055072;28;20452;-69
2023/03/13 05:45:29;;;;;;;57.77;2.57;;;;;;;;;;5054731;28;20456;-69
2023/03/13 05:47:57;;;;;;;58.17;2.67;;;;;;;;;;5054762;28;20450;-69
2023/03/13 05:50:26;;;;;;;57.67;2.60;;;;;;;;;;5054266;28;20518;-69
2023/03/13 05:52:54;;;;;;;58.10;2.60;;;;;;;;;;5055090;28;20454;-69
2023/03/13 05:55:21;;;;;;;57.83;3.00;;;;;;;;;;5054534;28;20837;-69
2023/03/13 05:57:49;;;;;;;57.40;2.53;;;;;;;;;;5054534;28;20479;-69
2023/03/13 06:00:16;;;;;;;57.40;2.70;;;;;;;;;;5054158;28;20452;-69
2023/03/13 06:02:44;;;;;;;58.30;2.60;;;;;;;;;;5054606;28;20451;-69
2023/03/13 06:05:11;;;;;;;57.60;2.70;;;;;;;;;;5054275;28;20835;-69
2023/03/13 06:07:38;;;;;;;57.83;2.73;;;;;;;;;;5054295;28;20468;-69
2023/03/13 06:10:07;;;;;;;58.57;2.67;;;;;;;;;;5053936;28;20452;-69
2023/03/13 06:12:34;;;;;;;57.60;2.60;;;;;;;;;;5054001;28;20871;-69
2023/03/13 06:15:02;;;;;;;57.97;2.80;;;;;;;;;;5054333;28;20452;-69
2023/03/13 06:17:29;;;;;;;58.90;2.53;;;;;;;;;;5054119;28;20476;-69
2023/03/13 06:19:56;;;;;;;59.60;2.90;;;;;;;;;;5053815;28;20807;-69
2023/03/13 06:22:23;;;;;;;57.87;2.50;;;;;;;;;;5053889;28;20444;-69
2023/03/13 06:24:50;;;;;;;57.30;2.33;;;;;;;;;;5053861;28;20448;-69
2023/03/13 06:27:18;;;;;;;57.57;2.60;;;;;;;;;;5054043;28;20500;-69
2023/03/13 06:29:46;;;;;;;58.20;2.80;;;;;;;;;;5053515;28;20932;-69
2023/03/13 06:32:13;;;;;;;58.13;2.60;;;;;;;;;;5053636;28;20491;-69
2023/03/13 06:34:40;;;;;;;58.67;2.50;;;;;;;;;;5053735;28;20462;-69
2023/03/13 06:37:07;;;;;;;57.60;2.40;;;;;;;;;;5053353;28;20882;-69
2023/03/13 06:39:34;;;;;;;58.27;2.80;;;;;;;;;;5053378;28;20452;-69
2023/03/13 06:42:02;;;;;;;58.27;2.73;;;;;;;;;;5053706;28;20551;-69
2023/03/13 06:44:30;;;;;;;57.50;2.27;;;;;;;;;;5053648;28;20459;-69
2023/03/13 06:46:57;;;;;;;57.87;2.50;;;;;;;;;;5053316;28;20476;-69
2023/03/13 06:49:24;;;;;;;62.77;2.83;;;;;;;;;;5053086;28;20452;-69
2023/03/13 06:51:51;;;;;;;57.57;2.80;;;;;;;;;;5053516;28;20935;-69
2023/03/13 06:54:18;;;;;;;57.67;2.57;;;;;;;;;;5053632;28;20448;-69
2023/03/13 06:56:46;;;;;;;58.47;2.60;;;;;;;;;;5053229;28;20477;-69
2023/03/13 06:59:13;;;;;;;57.27;2.20;;;;;;;;;;5052972;28;20444;-69
2023/03/13 07:01:41;;;;;;;57.80;2.80;;;;;;;;;;5053272;28;20447;-69
2023/03/13 07:04:10;;;;;;;58.50;2.70;;;;;;;;;;5053210;28;20451;-69
2023/03/13 07:06:37;;;;;;;59.10;2.80;;;;;;;;;;5053522;28;20478;-69
2023/03/13 07:09:05;;;;;;;59.47;3.00;;;;;;;;;;5053024;28;20452;-74
2023/03/13 07:11:32;;;;;;;58.27;2.73;;;;;;;;;;5053014;28;20472;-69
2023/03/13 07:14:00;;;;;;;58.87;2.80;;;;;;;;;;5053083;28;20459;-69
2023/03/13 07:16:29;;;;;;;57.47;2.67;;;;;;;;;;5052686;28;20523;-69
2023/03/13 07:18:57;;;;;;;59.77;3.10;;;;;;;;;;5052811;28;20805;-69
2023/03/13 07:21:24;;;;;;;57.37;2.50;;;;;;;;;;5052933;28;20440;-69
2023/03/13 07:23:51;;;;;;;57.20;2.60;;;;;;;;;;5052954;28;20485;-69
2023/03/13 07:26:19;;;;;;;58.40;3.10;;;;;;;;;;5052720;28;20492;-69
2023/03/13 07:28:46;;;;;;;57.87;2.67;;;;;;;;;;5052385;28;20501;-69
2023/03/13 07:31:15;;;;;;;57.60;2.60;;;;;;;;;;5052448;28;20488;-69
2023/03/13 07:33:43;;;;;;;57.50;2.57;;;;;;;;;;5052783;28;20455;-69
2023/03/13 07:36:12;;;;;;;58.53;2.63;;;;;;;;;;5052482;28;20510;-69
2023/03/13 07:38:39;;;;;;;58.87;2.77;;;;;;;;;;5052428;28;20448;-69
2023/03/13 07:41:07;;;;;;;57.37;2.70;;;;;;;;;;5052498;28;20444;-69
2023/03/13 07:43:34;;;;;;;58.00;2.90;;;;;;;;;;5052328;28;20452;-69
2023/03/13 07:46:02;;;;;;;57.17;2.20;;;;;;;;;;5052289;28;20494;-69
2023/03/13 07:48:30;;;;;;;59.10;2.60;;;;;;;;;;5052556;28;20451;-69
2023/03/13 07:50:57;;;;;;;59.17;2.60;;;;;;;;;;5051316;28;20456;-69
2023/03/13 07:53:26;;;;;;;57.70;2.53;;;;;;;;;;5051894;28;20458;-69
2023/03/13 07:55:54;;;;;;;57.90;2.80;;;;;;;;;;5051174;28;20547;-69
2023/03/13 07:58:22;;;;;;;60.13;3.10;;;;;;;;;;5051061;28;20456;-69
2023/03/13 08:00:49;;;;;;;57.70;2.70;;;;;;;;;;5050927;28;20455;-69
2023/03/13 08:03:16;;;;;;;57.70;2.70;;;;;;;;;;5050912;28;20459;-69
2023/03/13 08:05:43;;;;;;;58.67;2.80;;;;;;;;;;5050956;28;20937;-69
2023/03/13 08:08:10;;;;;;;58.00;2.60;;;;;;;;;;5051197;28;20448;-69
2023/03/13 08:10:39;;;;;;;57.57;2.43;;;;;;;;;;5052048;28;20819;-69
2023/03/13 08:13:06;;;;;;;57.53;2.70;;;;;;;;;;5052054;28;20488;-69
2023/03/13 08:15:33;;;;;;;58.67;2.60;;;;;;;;;;5052080;28;20444;-69
2023/03/13 08:18:00;;;;;;;57.73;2.73;;;;;;;;;;5051851;28;20458;-69
2023/03/13 08:20:27;;;;;;;60.07;2.73;;;;;;;;;;5051563;28;20444;-69
2023/03/13 08:22:56;;;;;;;58.13;2.90;;;;;;;;;;5051756;28;20937;-69
2023/03/13 08:25:23;;;;;;;58.77;2.90;;;;;;;;;;5051583;28;20458;-69
2023/03/13 08:27:51;;;;;;;57.37;2.60;;;;;;;;;;5051836;28;20845;-69
2023/03/13 08:30:19;;;;;;;58.10;2.43;;;;;;;;;;5051524;28;20454;-69
2023/03/13 08:32:46;;;;;;;57.77;2.50;;;;;;;;;;5052133;28;20487;-69
2023/03/13 08:35:13;;;;;;;59.87;2.93;;;;;;;;;;5051705;28;20451;-69
2023/03/13 08:37:40;;;;;;;57.87;2.60;;;;;;;;;;5051424;28;20482;-69
2023/03/13 08:40:10;;;;;;;57.47;2.70;;;;;;;;;;5051393;28;20829;-69
2023/03/13 08:42:37;;;;;;;57.50;2.70;;;;;;;;;;5051785;28;20444;-69
2023/03/13 08:45:06;;;;;;;57.83;2.60;;;;;;;;;;5051377;28;20444;-69
2023/03/13 08:47:33;;;;;;;57.40;2.70;;;;;;;;;;5051634;28;20468;-69
2023/03/13 08:50:00;;;;;;;58.53;2.50;;;;;;;;;;5051302;28;20441;-69
2023/03/13 08:52:27;;;;;;;59.03;3.03;;;;;;;;;;5051493;28;20488;-69
2023/03/13 08:54:55;;;;;;;58.47;2.90;;;;;;;;;;5051632;28;20445;-69
2023/03/13 08:57:22;;;;;;;57.87;2.60;;;;;;;;;;5051372;28;20468;-69
2023/03/13 08:59:50;;;;;;;59.17;2.60;;;;;;;;;;5051221;28;20459;-69
2023/03/13 09:02:19;;;;;;;58.00;2.60;;;;;;;;;;5054948;28;20452;-69
2023/03/13 09:04:47;;;;;;;57.60;2.73;;;;;;;;;;5055696;28;20448;-69
2023/03/13 09:07:15;;;;;;;58.20;3.30;;;;;;;;;;5055463;28;20906;-69
2023/03/13 09:09:42;;;;;;;58.17;2.70;;;;;;;;;;5055266;28;20447;-69
2023/03/13 09:12:10;;;;;;;57.60;2.70;;;;;;;;;;5055315;28;20488;-69
2023/03/13 09:14:37;;;;;;;57.73;2.60;;;;;;;;;;5055303;28;20450;-69
2023/03/13 09:17:04;;;;;;;57.60;2.70;;;;;;;;;;5055097;28;20990;-69
2023/03/13 09:19:32;;;;;;;60.30;3.10;;;;;;;;;;5054884;28;20941;-69
2023/03/13 09:21:59;;;;;;;58.40;2.87;;;;;;;;;;5055258;28;20440;-70
2023/03/13 09:24:27;;;;;;;57.70;2.80;;;;;;;;;;5055216;28;20450;-70
2023/03/13 09:26:54;;;;;;;61.10;2.60;;;;;;;;;;5055033;28;20984;-70
2023/03/13 09:29:21;;;;;;;57.33;2.60;;;;;;;;;;5054742;28;20448;-70
2023/03/13 09:31:48;;;;;;;59.17;3.10;;;;;;;;;;5054788;28;20491;-70
2023/03/13 09:34:15;;;;;;;60.50;3.30;;;;;;;;;;5054846;28;20967;-70
2023/03/13 09:36:44;;;;;;;58.87;3.07;;;;;;;;;;5055016;28;20468;-70
2023/03/13 09:39:11;;;;;;;60.57;2.90;;;;;;;;;;5054601;28;20456;-68
2023/03/13 09:41:40;;;;;;;58.73;3.50;;;;;;;;;;5054594;28;20953;-68
2023/03/13 09:44:10;;;;;;;58.00;3.00;;;;;;;;;;5054669;28;20526;-70
2023/03/13 09:46:40;;;;;;;60.15;2.83;;;;;;;;;;5054341;28;20451;-68
2023/03/13 09:49:10;;;;;;;57.90;2.60;;;;;;;;;;5054234;28;20209;-68
2023/03/13 09:51:40;;;;;;;58.20;3.30;;;;;;;;;;5054585;28;20459;-68
2023/03/13 09:54:10;;;;;;;58.47;2.90;;;;;;;;;;5054524;28;20456;-68
2023/03/13 09:56:39;;;;;;;60.17;3.13;;;;;;;;;;5054498;28;20470;-68
2023/03/13 09:59:10;;;;;;;57.80;2.70;;;;;;;;;;5054047;28;20452;-68
2023/03/13 10:01:39;;;;;;;57.80;2.80;;;;;;;;;;5054540;28;20462;-68
2023/03/13 10:04:08;;;;;;;58.40;3.40;;;;;;;;;;5054167;28;20451;-68
2023/03/13 10:06:39;;;;;;;57.70;2.70;;;;;;;;;;5054259;28;20468;-68
2023/03/13 10:09:16;;;;;;;60.57;3.17;;;;;;;;;;5053902;28;20455;-69
2023/03/13 10:11:45;;;;;;;58.20;3.40;;;;;;;;;;5053939;28;20454;-69
2023/03/13 10:14:15;;;;;;;58.50;3.07;;;;;;;;;;5053501;28;20449;-69
2023/03/13 10:16:44;;;;;;;58.80;3.60;;;;;;;;;;5054473;28;20482;-68
2023/03/13 10:19:12;;;;;;;59.07;3.43;;;;;;;;;;5053778;28;20448;-68
2023/03/13 10:21:40;;;;;;;59.67;3.30;;;;;;;;;;5054045;28;20453;-68
2023/03/13 10:24:15;;;;;;;57.50;2.90;;;;;;;;;;5053865;28;20937;-68
2023/03/13 10:26:43;;;;;;;60.47;3.20;;;;;;;;;;5053812;28;20460;-68
2023/03/13 10:29:20;;;;;;;58.87;3.00;;;;;;;;;;5053594;28;20447;-68
2023/03/13 10:31:51;;;;;;;59.17;3.13;;;;;;;;;;5053753;28;20448;-68
2023/03/13 10:34:18;;;;;;;59.40;3.10;;;;;;;;;;5053832;28;20451;-68
2023/03/13 10:36:46;;;;;;;58.67;3.30;;;;;;;;;;5053766;28;20566;-68
2023/03/13 10:39:16;;;;;;;58.20;3.10;;;;;;;;;;5053580;28;20444;-68
2023/03/13 10:41:44;;;;;;;59.20;3.10;;;;;;;;;;5053728;28;20444;-68
2023/03/13 10:44:16;;;;;;;60.07;2.80;;;;;;;;;;5053477;28;20752;-68
2023/03/13 10:46:45;;;;;;;58.63;3.40;;;;;;;;;;5053279;28;20762;-68
2023/03/13 10:49:15;;;;;;;60.80;3.40;;;;;;;;;;5053451;28;20450;-68
2023/03/13 10:51:48;;;;;;;59.60;3.60;;;;;;;;;;5053756;28;20466;-68
2023/03/13 10:54:16;;;;;;;58.50;3.40;;;;;;;;;;5053395;28;20460;-68
2023/03/13 10:56:45;;;;;;;57.70;3.10;;;;;;;;;;5053288;28;20841;-68
2023/03/13 10:59:20;;;;;;;58.20;3.10;;;;;;;;;;5052924;28;20953;-69
2023/03/13 11:01:48;;;;;;;58.87;3.60;;;;;;;;;;5053241;28;20859;-68
2023/03/13 11:04:29;;;;;;;58.20;3.03;;;;;;;;;;5053102;28;20952;-68
2023/03/13 11:07:01;;;;;;;58.50;3.60;;;;;;;;;;5053184;28;20541;-68
2023/03/13 11:09:29;;;;;;;58.37;2.90;;;;;;;;;;5052775;28;20448;-69
2023/03/13 11:12:02;;;;;;;59.07;3.07;;;;;;;;;;5052766;28;20448;-68
2023/03/13 11:14:29;;;;;;;58.90;3.33;;;;;;;;;;5053146;28;20444;-69
2023/03/13 11:17:00;;;;;;;59.37;3.17;;;;;;;;;;5052841;28;20479;-68
2023/03/13 11:19:45;;;;;;;58.83;3.03;;;;;;;;;;5052704;28;20459;-68
2023/03/13 11:22:27;;;;;;;58.77;3.03;;;;;;;;;;5052415;28;20444;-68
2023/03/13 11:24:58;;;;;;;61.80;3.33;;;;;;;;;;5049229;28;20461;-69
2023/03/13 11:27:30;;;;;;;59.07;3.30;;;;;;;;;;5053053;28;20468;-69
2023/03/13 11:30:03;;;;;;;59.10;3.33;;;;;;;;;;5052482;28;20448;-69
2023/03/13 11:32:35;;;;;;;59.17;3.60;;;;;;;;;;5052633;28;20492;-69
2023/03/13 11:35:04;;;;;;;58.73;2.80;;;;;;;;;;5052513;28;20456;-69
2023/03/13 11:37:34;;;;;;;59.13;3.40;;;;;;;;;;5052510;28;20506;-69
2023/03/13 11:40:11;;;;;;;60.23;3.00;;;;;;;;;;5052254;28;20452;-69
2023/03/13 11:42:50;;;;;;;58.40;3.20;;;;;;;;;;5052523;28;20459;-69
2023/03/13 11:45:28;;;;;;;58.80;2.80;;;;;;;;;;5052274;28;20534;-69
2023/03/13 11:47:58;;;;;;;58.73;3.17;;;;;;;;;;5052608;28;20454;-69
2023/03/13 11:50:35;;;;;;;58.17;2.83;;;;;;;;;;5052171;28;20445;-69
2023/03/13 11:53:18;;;;;;;58.10;2.70;;;;;;;;;;5052130;28;20533;-69
2023/03/13 11:56:00;;;;;;;58.07;2.80;;;;;;;;;;5052663;28;20521;-69
2023/03/13 11:58:38;;;;;;;56.97;2.40;;;;;;;;;;5048844;28;20456;-69
2023/03/13 12:01:08;;;;;;;58.60;2.90;;;;;;;;;;5052081;28;20450;-70
2023/03/13 12:03:38;;;;;;;60.70;3.13;;;;;;;;;;5052154;28;20816;-69
2023/03/13 12:06:06;;;;;;;58.57;3.30;;;;;;;;;;5052045;28;20472;-70
2023/03/13 12:08:37;;;;;;;58.57;3.10;;;;;;;;;;5051745;28;20570;-69
2023/03/13 12:11:07;;;;;;;60.20;3.40;;;;;;;;;;5052262;28;20501;-69
2023/03/13 12:13:37;;;;;;;57.53;2.73;;;;;;;;;;5052058;28;20495;-69
2023/03/13 12:16:06;;;;;;;58.00;3.00;;;;;;;;;;5052010;28;20464;-69
2023/03/13 12:18:37;;;;;;;58.77;2.80;;;;;;;;;;5051511;28;20530;-69
2023/03/13 12:21:06;;;;;;;58.47;2.50;;;;;;;;;;5051827;28;20909;-69
2023/03/13 12:23:38;;;;;;;58.77;2.70;;;;;;;;;;5052045;28;20447;-70
2023/03/13 12:26:07;;;;;;;58.17;2.60;;;;;;;;;;5052301;28;20468;-70
2023/03/13 12:28:38;;;;;;;59.50;2.70;;;;;;;;;;5051906;28;20460;-68
2023/03/13 12:31:09;;;;;;;58.13;2.47;;;;;;;;;;5052093;28;20474;-68
2023/03/13 12:33:38;;;;;;;60.07;2.80;;;;;;;;;;5052025;28;20864;-68
2023/03/13 12:36:09;;;;;;;57.47;2.50;;;;;;;;;;5051460;28;20467;-68
2023/03/13 12:38:39;;;;;;;57.60;3.03;;;;;;;;;;5051540;28;20452;-68
2023/03/13 12:41:11;;;;;;;58.10;3.07;;;;;;;;;;5051866;28;20459;-68
2023/03/13 12:43:40;;;;;;;57.87;3.10;;;;;;;;;;5052104;28;20447;-68
2023/03/13 12:46:18;;;;;;;57.97;2.70;;;;;;;;;;5051491;28;20852;-69
2023/03/13 12:48:57;;;;;;;57.97;2.90;;;;;;;;;;5051218;28;20459;-69
2023/03/13 12:51:35;;;;;;;58.70;2.87;;;;;;;;;;5051580;28;20816;-70
2023/03/13 12:54:14;;;;;;;58.20;2.70;;;;;;;;;;5051604;28;20444;-69
2023/03/13 12:56:55;;;;;;;58.63;2.63;;;;;;;;;;5051302;28;20467;-69
2023/03/13 12:59:25;;;;;;;57.60;2.53;;;;;;;;;;5051373;28;20444;-69
2023/03/13 13:01:53;;;;;;;61.50;2.57;;;;;;;;;;5051845;28;20450;-69
2023/03/13 13:04:22;;;;;;;59.40;2.80;;;;;;;;;;5051389;28;20856;-69
2023/03/13 13:07:01;;;;;;;57.43;2.30;;;;;;;;;;5051433;28;20467;-69
2023/03/13 13:09:29;;;;;;;58.20;2.40;;;;;;;;;;5051075;28;20448;-69
2023/03/13 13:11:58;;;;;;;62.40;2.87;;;;;;;;;;5051349;28;20491;-70
2023/03/13 13:14:51;;;;;;;58.93;2.50;;;;;;;;;;5051326;28;20843;-70
2023/03/13 13:17:24;;;;;;;58.23;2.73;;;;;;;;;;5051404;28;20468;-70
2023/03/13 13:19:51;;;;;;;57.87;2.70;;;;;;;;;;5051226;28;20448;-67
2023/03/13 13:22:37;;;;;;;58.60;2.73;;;;;;;;;;5051273;28;20794;-68
2023/03/13 13:25:26;;;;;;;58.53;3.13;;;;;;;;;;5051114;28;20988;-68
2023/03/13 13:27:53;;;;;;;57.77;2.77;;;;;;;;;;5051436;28;20453;-69
2023/03/13 13:30:31;;;;;;;58.57;2.30;;;;;;;;;;5051113;28;20470;-68
2023/03/13 13:33:27;;;;;;;57.97;2.67;;;;;;;;;;5051093;28;20444;-68
2023/03/13 13:36:09;;;;;;;59.40;3.33;;;;;;;;;;5050877;28;20472;-69
2023/03/13 13:38:39;;;;;;;58.60;2.70;;;;;;;;;;5050256;28;20479;-69
2023/03/13 13:41:24;;;;;;;57.47;2.80;;;;;;;;;;5051245;28;20534;-68
2023/03/13 13:44:11;;;;;;;58.20;3.03;;;;;;;;;;5051010;28;20488;-69
2023/03/13 13:46:44;;;;;;;68.20;3.00;;;;;;;;;;5050719;28;20864;-69
2023/03/13 13:49:15;;;;;;;58.00;2.60;;;;;;;;;;5053778;28;20455;-69
2023/03/13 13:51:42;;;;;;;58.40;2.90;;;;;;;;;;5054698;28;20452;-69
2023/03/13 13:54:24;;;;;;;57.57;2.50;;;;;;;;;;5054412;28;20933;-69
2023/03/13 13:56:58;;;;;;;59.87;3.10;;;;;;;;;;5053956;28;20476;-69
2023/03/13 13:59:34;;;;;;;58.20;2.80;;;;;;;;;;5054276;28;20444;-69
2023/03/13 14:02:22;;;;;;;58.17;2.80;;;;;;;;;;5054370;28;20450;-69
2023/03/13 14:04:52;;;;;;;58.93;2.80;;;;;;;;;;5054158;28;20488;-69
2023/03/13 14:07:21;;;;;;;58.23;2.63;;;;;;;;;;5054546;28;20809;-69
2023/03/13 14:09:51;;;;;;;62.10;2.93;;;;;;;;;;5054167;28;20455;-69
2023/03/13 14:12:29;;;;;;;57.80;2.60;;;;;;;;;;5054341;28;20448;-69
2023/03/13 14:15:16;;;;;;;57.80;2.60;;;;;;;;;;5054090;28;20448;-69
2023/03/13 14:17:46;;;;;;;58.20;3.20;;;;;;;;;;5054165;28;20992;-69
2023/03/13 14:20:30;;;;;;;60.67;2.60;;;;;;;;;;5053873;28;20896;-69
2023/03/13 14:23:00;;;;;;;59.70;2.90;;;;;;;;;;5053815;28;20955;-69
2023/03/13 14:25:28;;;;;;;57.13;2.57;;;;;;;;;;5054110;28;20443;-69
2023/03/13 14:27:55;;;;;;;58.90;3.60;;;;;;;;;;5053791;28;20450;-69
2023/03/13 14:30:24;;;;;;;57.40;2.40;;;;;;;;;;5053680;28;20455;-69
2023/03/13 14:32:53;;;;;;;57.50;2.57;;;;;;;;;;5053987;28;20464;-69
2023/03/13 14:35:22;;;;;;;57.57;2.70;;;;;;;;;;5053737;28;20451;-69
2023/03/13 14:37:50;;;;;;;58.00;2.60;;;;;;;;;;5053539;28;20471;-69
2023/03/13 14:40:21;;;;;;;58.37;2.90;;;;;;;;;;5053170;28;20458;-69
2023/03/13 14:42:50;;;;;;;59.90;2.70;;;;;;;;;;5053736;28;20944;-69